Time;durP1;ratioP1;P1;durP2;ratioP2;P2;SDS_P1;SDS_P2;PMS_P1;PMS_P2;Temp;Humidity;BMP_temperature;BMP_pressure;BME280_temperature;BME280_humidity;BME280_pressure;Samples;Min_cycle;Max_cycle;Signal;HPM_P1;HPM_P2
2024/01/02 00:01:08;;;;;;;225.27;9.47;;;;;;;20.91;58.49;98694.16;7293091;19;129562;-40
2024/01/02 00:03:33;;;;;;;112.57;4.57;;;;;;;21.15;58.60;98717.00;7297187;19;129922;-39
2024/01/02 00:05:59;;;;;;;287.45;10.88;;;;;;;21.20;58.59;98720.78;7296180;19;130351;-40
2024/01/02 00:08:24;;;;;;;280.13;10.52;;;;;;;21.26;58.40;98717.53;7291465;19;130146;-42
2024/01/02 00:10:49;;;;;;;303.03;11.90;;;;;;;21.42;57.50;98714.16;7287124;19;131661;-40
2024/01/02 00:13:15;;;;;;;228.77;8.63;;;;;;;21.55;57.64;98717.91;7294139;19;129107;-40
2024/01/02 00:15:40;;;;;;;289.67;11.00;;;;;;;21.61;56.81;98714.66;7292194;19;132296;-37
2024/01/02 00:18:06;;;;;;;207.50;8.00;;;;;;;21.67;56.18;98711.41;7297532;19;131464;-39
2024/01/02 00:20:31;;;;;;;189.30;7.45;;;;;;;21.46;56.72;98694.53;7295299;19;130748;-41
2024/01/02 00:22:56;;;;;;;145.17;6.03;;;;;;;21.49;56.81;98700.25;7294723;19;130899;-42
2024/01/02 00:25:22;;;;;;;286.17;10.80;;;;;;;21.48;57.22;98713.50;7294162;19;130796;-38
2024/01/02 00:27:47;;;;;;;205.33;8.07;;;;;;;21.26;57.28;98688.75;7295193;19;130570;-39
2024/01/02 00:30:13;;;;;;;216.63;8.35;;;;;;;21.40;57.27;98701.19;7294418;19;130548;-39
2024/01/02 00:32:38;;;;;;;200.10;7.77;;;;;;;21.42;57.74;98695.84;7292183;19;130892;-42
2024/01/02 00:35:04;;;;;;;232.40;8.77;;;;;;;21.48;57.29;98698.63;7294331;19;132524;-40
2024/01/02 00:37:29;;;;;;;228.88;8.93;;;;;;;21.50;57.43;98693.25;7295732;19;129355;-40
2024/01/02 00:39:55;;;;;;;185.20;7.28;;;;;;;21.52;57.32;98694.69;7294826;19;129877;-38
2024/01/02 00:42:20;;;;;;;252.47;9.60;;;;;;;21.56;56.70;98696.03;7291289;19;130300;-38
2024/01/02 00:44:46;;;;;;;237.75;9.13;;;;;;;21.37;57.51;98667.53;7296405;19;133098;-39
2024/01/02 00:47:12;;;;;;;215.40;8.70;;;;;;;21.54;57.36;98691.91;7296083;19;129488;-42
2024/01/02 00:49:38;;;;;;;193.33;7.47;;;;;;;21.55;57.13;98689.13;7291322;19;129594;-41
2024/01/02 00:52:03;;;;;;;299.02;11.68;;;;;;;21.52;56.99;98691.25;7291907;19;130953;-38
2024/01/02 00:54:29;;;;;;;233.48;9.02;;;;;;;21.53;57.07;98679.84;7292622;19;130380;-41
2024/01/02 00:56:55;;;;;;;223.77;8.47;;;;;;;21.38;57.48;98663.13;7296373;19;130240;-39
2024/01/02 00:59:20;;;;;;;153.73;6.07;;;;;;;21.47;56.89;98678.66;7297284;19;129746;-39
2024/01/02 01:01:45;;;;;;;273.25;10.25;;;;;;;21.43;57.58;98674.75;7292739;19;130847;-37
2024/01/02 01:04:11;;;;;;;238.93;8.93;;;;;;;21.37;57.69;98667.53;7291812;19;131261;-40
2024/01/02 01:06:36;;;;;;;170.97;6.63;;;;;;;21.30;58.24;98663.94;7295638;19;130934;-38
2024/01/02 01:09:02;;;;;;;271.65;10.75;;;;;;;21.27;58.33;98674.69;7293140;19;130326;-37
2024/01/02 01:11:27;;;;;;;221.40;8.47;;;;;;;21.24;57.77;98669.78;7295686;19;130161;-38
2024/01/02 01:13:53;;;;;;;208.88;8.50;;;;;;;21.18;58.34;98680.91;7295220;19;130456;-38
2024/01/02 01:16:18;;;;;;;182.15;7.25;;;;;;;21.15;58.30;98688.25;7295501;19;130134;-40
2024/01/02 01:18:43;;;;;;;287.10;10.83;;;;;;;21.13;58.74;98696.25;7294594;19;131278;-41
2024/01/02 01:21:09;;;;;;;191.68;7.93;;;;;;;21.11;58.74;98692.97;7293790;19;130312;-37
2024/01/02 01:23:34;;;;;;;256.83;9.67;;;;;;;21.03;58.69;98686.88;7294394;19;131094;-38
2024/01/02 01:26:00;;;;;;;221.97;8.77;;;;;;;21.06;58.39;98697.84;7295184;19;129705;-43
2024/01/02 01:28:25;;;;;;;217.05;8.38;;;;;;;21.04;59.04;98699.78;7292951;19;129608;-42
2024/01/02 01:30:50;;;;;;;182.75;6.97;;;;;;;20.99;59.35;98686.38;7295009;19;132078;-41
2024/01/02 01:33:16;;;;;;;195.83;7.33;;;;;;;21.00;59.05;98681.97;7294805;19;131158;-38
2024/01/02 01:35:41;;;;;;;202.43;7.80;;;;;;;20.88;58.91;98663.13;7294377;19;132734;-39
2024/01/02 01:38:07;;;;;;;296.63;11.10;;;;;;;20.98;59.08;98684.75;7293726;19;129788;-43
2024/01/02 01:40:32;;;;;;;186.25;7.13;;;;;;;20.98;59.07;98689.97;7293444;19;130233;-42
2024/01/02 01:42:58;;;;;;;222.70;8.43;;;;;;;20.96;59.44;98686.66;7293242;19;130261;-39
2024/01/02 01:45:23;;;;;;;213.73;7.97;;;;;;;20.95;59.08;98686.81;7292547;19;131345;-39
2024/01/02 01:47:50;;;;;;;290.80;11.18;;;;;;;20.91;59.36;98681.09;7294433;19;131141;-40
2024/01/02 01:50:16;;;;;;;146.70;5.80;;;;;;;20.91;59.86;98688.94;7291739;19;129284;-42
2024/01/02 01:52:43;;;;;;;159.67;6.07;;;;;;;20.93;59.12;98684.38;7292651;19;129949;-41
2024/01/02 01:55:10;;;;;;;250.57;10.00;;;;;;;20.92;58.87;98677.53;7292872;19;133202;-38
2024/01/02 01:57:36;;;;;;;224.98;8.43;;;;;;;20.89;59.15;98680.41;7293784;19;129716;-39
2024/01/02 02:00:01;;;;;;;242.52;9.48;;;;;;;20.86;59.95;98672.09;7293690;19;129701;-38
2024/01/02 02:02:27;;;;;;;176.63;6.68;;;;;;;20.87;59.67;98676.34;7292845;19;132049;-37
2024/01/02 02:04:53;;;;;;;220.82;8.55;;;;;;;20.85;59.57;98673.88;7290684;19;130583;-41
2024/01/02 02:07:18;;;;;;;272.20;10.32;;;;;;;20.87;59.17;98684.19;7294753;19;133829;-40
2024/01/02 02:09:43;;;;;;;235.47;9.10;;;;;;;20.85;58.99;98680.91;7292231;19;130434;-37
2024/01/02 02:12:09;;;;;;;170.57;6.70;;;;;;;20.81;59.50;98674.38;7291871;19;130511;-38
2024/01/02 02:14:36;;;;;;;225.90;8.17;;;;;;;20.81;59.38;98666.53;7289908;19;132072;-39
2024/01/02 02:17:01;;;;;;;192.85;7.47;;;;;;;20.82;59.56;98658.53;7290112;19;129103;-37
2024/01/02 02:19:26;;;;;;;221.07;8.00;;;;;;;20.83;60.01;98644.50;7294203;19;130837;-39
2024/01/02 02:21:54;;;;;;;241.52;9.05;;;;;;;20.84;59.68;98640.88;7286448;19;131182;-39
2024/01/02 02:24:19;;;;;;;286.25;10.60;;;;;;;20.83;59.79;98649.72;7291427;19;129635;-37
2024/01/02 02:26:45;;;;;;;213.65;8.15;;;;;;;20.83;59.99;98641.88;7293918;19;129482;-39
2024/01/02 02:29:10;;;;;;;218.20;8.05;;;;;;;20.83;59.38;98641.88;7290388;19;130036;-41
2024/01/02 02:31:35;;;;;;;168.77;6.40;;;;;;;20.81;59.21;98646.44;7290756;19;130388;-41
2024/01/02 02:34:01;;;;;;;277.15;10.77;;;;;;;20.69;59.27;98621.59;7290008;19;129725;-41
2024/01/02 02:36:26;;;;;;;227.55;8.68;;;;;;;20.83;59.87;98635.81;7293878;19;132098;-37
2024/01/02 02:38:51;;;;;;;183.85;7.07;;;;;;;20.83;59.46;98631.44;7293801;19;131055;-38
2024/01/02 02:41:17;;;;;;;243.23;9.32;;;;;;;20.81;59.43;98625.53;7290846;19;129695;-39
2024/01/02 02:43:42;;;;;;;237.73;8.68;;;;;;;20.78;59.70;98625.84;7292602;19;129303;-41
2024/01/02 02:46:07;;;;;;;252.10;9.80;;;;;;;20.77;60.40;98628.63;7292076;19;129266;-41
2024/01/02 02:48:33;;;;;;;214.93;8.13;;;;;;;20.77;59.80;98629.47;7291424;19;131545;-38
2024/01/02 02:50:58;;;;;;;271.95;10.57;;;;;;;20.76;59.57;98627.00;7292237;19;131698;-39
2024/01/02 02:53:23;;;;;;;263.97;9.80;;;;;;;20.74;59.38;98620.13;7292422;19;130851;-39
2024/01/02 02:55:49;;;;;;;154.67;6.10;;;;;;;20.72;59.87;98621.28;7291843;19;129246;-41
2024/01/02 02:58:15;;;;;;;164.10;6.13;;;;;;;20.73;59.66;98622.91;7290041;19;130787;-43
2024/01/02 03:00:40;;;;;;;182.52;6.68;;;;;;;20.69;59.52;98608.53;7291894;19;130350;-38
2024/01/02 03:03:06;;;;;;;262.95;10.20;;;;;;;20.74;60.18;98614.09;7292674;19;129822;-39
2024/01/02 03:05:31;;;;;;;193.80;7.55;;;;;;;20.75;60.05;98610.50;7290381;19;133333;-40
2024/01/02 03:07:57;;;;;;;213.23;8.07;;;;;;;20.77;60.15;98598.13;7292252;19;133084;-42
2024/01/02 03:10:24;;;;;;;283.67;10.70;;;;;;;20.77;59.76;98592.88;7287471;19;131897;-38
2024/01/02 03:12:49;;;;;;;183.00;6.93;;;;;;;20.75;59.69;98589.59;7293620;19;130851;-40
2024/01/02 03:15:15;;;;;;;176.70;7.10;;;;;;;20.75;59.81;98594.84;7287557;19;129503;-41
2024/01/02 03:17:40;;;;;;;176.43;6.82;;;;;;;20.77;59.87;98588.47;7291966;19;131543;-37
2024/01/02 03:20:07;;;;;;;310.85;11.65;;;;;;;20.76;59.73;98582.59;7283880;19;132642;-41
2024/01/02 03:22:32;;;;;;;235.37;8.90;;;;;;;20.76;59.84;98580.78;7288725;19;129212;-37
2024/01/02 03:24:57;;;;;;;215.05;8.15;;;;;;;20.76;59.64;98575.56;7289936;19;131568;-40
2024/01/02 03:27:22;;;;;;;178.00;6.68;;;;;;;20.74;59.84;98577.53;7291204;19;130457;-41
2024/01/02 03:29:48;;;;;;;342.23;13.40;;;;;;;20.72;59.51;98569.84;7287862;19;130322;-39
2024/01/02 03:32:13;;;;;;;273.45;10.75;;;;;;;20.72;59.97;98555.97;7289058;19;131996;-37
2024/01/02 03:34:38;;;;;;;193.07;7.00;;;;;;;20.77;59.81;98564.16;7291899;19;131972;-38
2024/01/02 03:37:04;;;;;;;227.37;8.80;;;;;;;20.73;59.95;98565.44;7290068;19;130874;-39
2024/01/02 03:39:30;;;;;;;247.48;9.18;;;;;;;20.73;60.27;98557.59;7289919;19;130297;-40
2024/01/02 03:41:55;;;;;;;234.48;8.52;;;;;;;20.76;59.43;98543.41;7292485;19;129982;-39
2024/01/02 03:44:21;;;;;;;245.67;9.43;;;;;;;20.61;60.06;98519.69;7288400;19;129522;-39
2024/01/02 03:46:46;;;;;;;219.02;7.90;;;;;;;20.75;59.67;98532.16;7290261;19;129566;-41
2024/01/02 03:49:12;;;;;;;223.07;8.90;;;;;;;20.77;59.40;98535.44;7289175;19;129211;-41
2024/01/02 03:51:37;;;;;;;174.45;6.43;;;;;;;20.77;60.21;98530.19;7291203;19;129160;-39
2024/01/02 03:54:03;;;;;;;229.53;8.80;;;;;;;20.77;59.63;98519.75;7288813;19;129231;-40
2024/01/02 03:56:28;;;;;;;280.55;10.45;;;;;;;20.78;60.20;98521.38;7289710;19;130405;-39
2024/01/02 03:58:53;;;;;;;171.02;6.60;;;;;;;20.64;59.70;98495.91;7292974;19;130383;-40
2024/01/02 04:01:19;;;;;;;258.75;10.07;;;;;;;20.77;60.27;98515.31;7289826;19;130070;-39
2024/01/02 04:03:44;;;;;;;182.25;6.88;;;;;;;20.79;59.55;98512.56;7287256;19;129366;-40
2024/01/02 04:06:10;;;;;;;251.45;9.27;;;;;;;20.80;59.45;98502.94;7287014;19;130099;-39
2024/01/02 04:08:37;;;;;;;270.90;10.00;;;;;;;20.77;59.89;98503.25;7289004;19;130436;-37
2024/01/02 04:11:03;;;;;;;220.52;8.25;;;;;;;20.77;59.75;98488.41;7287121;19;129640;-40
2024/01/02 04:13:28;;;;;;;218.77;8.13;;;;;;;20.77;59.85;98488.41;7290032;19;129788;-40
2024/01/02 04:15:54;;;;;;;259.33;9.40;;;;;;;20.76;59.25;98485.97;7291045;19;130733;-36
2024/01/02 04:18:19;;;;;;;134.85;5.15;;;;;;;20.77;59.98;98477.13;7288847;19;131246;-41
2024/01/02 04:20:44;;;;;;;136.30;5.03;;;;;;;20.77;59.60;98477.97;7289906;19;129435;-40
2024/01/02 04:23:10;;;;;;;283.90;10.60;;;;;;;20.73;59.68;98474.03;7296167;19;129698;-39
2024/01/02 04:25:35;;;;;;;194.55;7.18;;;;;;;20.77;59.49;98472.72;7296464;19;130071;-39
2024/01/02 04:28:01;;;;;;;222.10;8.33;;;;;;;20.76;60.00;98465.84;7297994;19;130348;-38
2024/01/02 04:30:26;;;;;;;217.18;8.20;;;;;;;20.75;59.93;98464.25;7295531;19;130355;-43
2024/01/02 04:32:51;;;;;;;145.98;5.43;;;;;;;20.72;60.01;98461.94;7296871;19;129342;-42
2024/01/02 04:35:17;;;;;;;229.57;8.85;;;;;;;20.72;59.79;98464.56;7295027;19;129568;-40
2024/01/02 04:37:43;;;;;;;199.07;7.45;;;;;;;20.76;59.66;98444.97;7297069;19;129660;-37
2024/01/02 04:40:10;;;;;;;252.77;9.68;;;;;;;20.74;59.79;98445.13;7295169;19;129909;-39
2024/01/02 04:42:36;;;;;;;225.85;8.13;;;;;;;20.76;60.11;98436.34;7296594;19;129748;-41
2024/01/02 04:45:03;;;;;;;207.45;7.88;;;;;;;20.77;60.10;98435.34;7295983;19;130125;-38
2024/01/02 04:47:29;;;;;;;231.75;9.02;;;;;;;20.80;60.24;98435.00;7295872;19;133122;-39
2024/01/02 04:49:55;;;;;;;150.85;5.68;;;;;;;20.77;59.87;98428.34;7294369;19;131188;-40
2024/01/02 04:52:20;;;;;;;295.30;11.00;;;;;;;20.78;59.82;98422.13;7294799;19;129794;-39
2024/01/02 04:54:46;;;;;;;283.63;10.70;;;;;;;20.79;59.91;98423.78;7296841;19;132249;-40
2024/01/02 04:57:11;;;;;;;229.18;9.05;;;;;;;20.78;60.07;98416.88;7295305;19;131234;-39
2024/01/02 04:59:36;;;;;;;210.20;7.47;;;;;;;20.77;59.91;98417.06;7295484;19;129826;-38
2024/01/02 05:02:02;;;;;;;219.13;7.77;;;;;;;20.71;60.47;98415.91;7294980;19;129472;-41
2024/01/02 05:04:27;;;;;;;230.20;8.65;;;;;;;20.73;60.10;98406.13;7292261;19;130155;-36
2024/01/02 05:06:53;;;;;;;242.90;8.97;;;;;;;20.73;59.96;98406.13;7292139;19;131128;-36
2024/01/02 05:09:18;;;;;;;277.67;10.47;;;;;;;20.73;59.91;98403.50;7291616;19;129954;-39
2024/01/02 05:11:44;;;;;;;180.10;6.85;;;;;;;20.70;59.61;98388.16;7295191;19;129473;-40
2024/01/02 05:14:09;;;;;;;275.37;10.27;;;;;;;20.76;59.40;98395.34;7293837;19;130302;-37
2024/01/02 05:16:34;;;;;;;220.50;8.32;;;;;;;20.76;59.65;98386.72;7292771;19;130919;-39
2024/01/02 05:19:00;;;;;;;313.67;11.50;;;;;;;20.60;59.62;98358.78;7296225;19;133175;-39
2024/01/02 05:21:25;;;;;;;173.77;6.63;;;;;;;20.74;59.88;98374.59;7295525;19;130430;-43
2024/01/02 05:23:50;;;;;;;115.90;4.38;;;;;;;20.77;59.73;98380.50;7294526;19;129591;-44
2024/01/02 05:26:16;;;;;;;178.18;6.60;;;;;;;20.76;59.80;98373.66;7292875;19;129251;-39
2024/01/02 05:28:41;;;;;;;216.15;7.75;;;;;;;20.76;60.10;98371.84;7294758;19;130427;-39
2024/01/02 05:31:06;;;;;;;248.27;9.55;;;;;;;20.74;60.00;98369.38;7294725;19;129857;-38
2024/01/02 05:33:32;;;;;;;196.18;7.22;;;;;;;20.78;59.63;98364.66;7292736;19;130183;-41
2024/01/02 05:35:57;;;;;;;320.23;12.20;;;;;;;20.78;59.89;98354.19;7292569;19;130438;-39
2024/01/02 05:38:23;;;;;;;246.30;9.50;;;;;;;20.61;59.78;98316.00;7293067;19;131045;-38
2024/01/02 05:40:48;;;;;;;210.80;8.05;;;;;;;20.77;59.99;98339.53;7294392;19;129933;-38
2024/01/02 05:43:13;;;;;;;252.52;9.60;;;;;;;20.79;59.87;98324.50;7294304;19;132216;-39
2024/01/02 05:45:39;;;;;;;247.73;8.93;;;;;;;20.78;59.74;98320.25;7292779;19;130276;-38
2024/01/02 05:48:05;;;;;;;173.57;6.47;;;;;;;20.59;59.82;98281.44;7295122;19;130138;-38
2024/01/02 05:50:30;;;;;;;250.87;9.50;;;;;;;20.73;59.91;98309.47;7292340;19;131774;-37
2024/01/02 05:52:57;;;;;;;218.38;8.05;;;;;;;20.75;60.08;98297.09;7294344;19;130178;-37
2024/01/02 05:55:22;;;;;;;170.85;6.53;;;;;;;20.58;59.84;98275.41;7291126;19;130823;-42
2024/01/02 05:57:48;;;;;;;203.20;7.50;;;;;;;20.72;60.05;98300.81;7294780;19;129579;-39
2024/01/02 06:00:13;;;;;;;240.80;9.10;;;;;;;20.60;60.00;98268.22;7292967;19;129663;-37
2024/01/02 06:02:39;;;;;;;218.47;7.77;;;;;;;20.74;59.63;98290.25;7293172;19;130845;-36
2024/01/02 06:05:05;;;;;;;193.77;7.05;;;;;;;20.74;60.10;98285.81;7293042;19;130278;-40
2024/01/02 06:07:30;;;;;;;218.65;7.80;;;;;;;20.74;59.79;98282.41;7293554;19;129488;-39
2024/01/02 06:09:55;;;;;;;220.07;8.03;;;;;;;20.73;59.92;98278.13;7291806;19;129255;-39
2024/01/02 06:12:21;;;;;;;268.88;10.13;;;;;;;20.74;59.66;98279.78;7291846;19;130111;-38
2024/01/02 06:14:46;;;;;;;248.13;9.10;;;;;;;20.74;59.76;98271.97;7292621;19;130335;-37
2024/01/02 06:17:12;;;;;;;167.60;6.28;;;;;;;20.75;59.74;98265.75;7293585;19;129169;-43
2024/01/02 06:19:37;;;;;;;188.10;6.80;;;;;;;20.76;60.16;98267.34;7293715;19;129175;-41
2024/01/02 06:22:03;;;;;;;277.73;10.02;;;;;;;20.73;60.05;98252.03;7291893;19;130735;-37
2024/01/02 06:24:28;;;;;;;253.77;9.77;;;;;;;20.77;59.59;98259.34;7293038;19;130866;-39
2024/01/02 06:26:53;;;;;;;206.25;7.90;;;;;;;20.76;59.54;98248.28;7293354;19;129759;-43
2024/01/02 06:29:19;;;;;;;153.03;5.77;;;;;;;20.76;60.27;98250.91;7288719;19;131084;-41
2024/01/02 06:31:44;;;;;;;299.07;10.87;;;;;;;20.73;59.87;98238.97;7292013;19;130198;-39
2024/01/02 06:34:10;;;;;;;248.25;8.90;;;;;;;20.59;60.16;98218.78;7290003;19;130729;-37
2024/01/02 06:36:35;;;;;;;181.27;6.75;;;;;;;20.72;60.45;98234.75;7292772;19;129211;-37
2024/01/02 06:39:00;;;;;;;110.22;4.13;;;;;;;20.73;60.20;98241.56;7292238;19;129436;-40
2024/01/02 06:41:26;;;;;;;274.90;10.10;;;;;;;20.68;59.82;98234.25;7291281;19;130299;-42
2024/01/02 06:43:51;;;;;;;251.30;9.05;;;;;;;20.72;60.32;98230.31;7291650;19;129207;-37
2024/01/02 06:46:16;;;;;;;218.57;8.13;;;;;;;20.74;60.13;98227.56;7291813;19;130815;-37
2024/01/02 06:48:42;;;;;;;170.55;6.47;;;;;;;20.74;59.67;98232.78;7293673;19;129974;-38
2024/01/02 06:51:07;;;;;;;219.55;8.50;;;;;;;20.73;59.86;98226.72;7291818;19;130146;-43
2024/01/02 06:53:33;;;;;;;169.40;6.13;;;;;;;20.59;60.17;98192.66;7292234;19;129226;-41
2024/01/02 06:55:59;;;;;;;241.07;9.05;;;;;;;20.74;60.28;98232.78;7288584;19;130131;-38
2024/01/02 06:58:24;;;;;;;290.50;11.20;;;;;;;20.74;59.77;98224.94;7291109;19;129628;-37
2024/01/02 07:00:50;;;;;;;220.40;8.27;;;;;;;20.73;59.77;98226.72;7292163;19;132473;-38
2024/01/02 07:03:17;;;;;;;207.05;7.68;;;;;;;20.73;59.87;98220.69;7289003;19;131375;-41
2024/01/02 07:05:42;;;;;;;451.45;17.25;;;;;;;20.76;60.49;98214.31;7285264;19;130822;-38
2024/01/02 07:08:07;;;;;;;227.17;8.57;;;;;;;20.74;60.33;98210.06;7291502;19;131090;-39
2024/01/02 07:10:32;;;;;;;224.98;8.40;;;;;;;20.76;60.18;98212.50;7289289;19;130378;-40
2024/01/02 07:12:58;;;;;;;114.10;4.10;;;;;;;20.72;60.49;98198.19;7291020;19;130721;-43
2024/01/02 07:15:24;;;;;;;210.83;7.73;;;;;;;20.75;59.91;98200.44;7290618;19;130157;-41
2024/01/02 07:17:49;;;;;;;227.52;8.35;;;;;;;20.74;59.65;98202.22;7291196;19;130760;-36
2024/01/02 07:20:15;;;;;;;236.33;8.93;;;;;;;20.76;59.95;98196.03;7289945;19;129401;-39
2024/01/02 07:22:40;;;;;;;105.60;3.90;;;;;;;20.79;59.44;98193.91;7291297;19;129125;-40
2024/01/02 07:25:06;;;;;;;240.88;8.88;;;;;;;20.76;59.64;98180.38;7287687;19;131255;-42
2024/01/02 07:27:31;;;;;;;252.43;9.77;;;;;;;20.74;60.37;98175.31;7292232;19;131018;-38
2024/01/02 07:29:56;;;;;;;230.63;8.57;;;;;;;20.73;59.88;98177.13;7289674;19;130024;-36
2024/01/02 07:32:22;;;;;;;199.13;7.32;;;;;;;20.74;60.13;98176.13;7289731;19;130274;-35
2024/01/02 07:34:47;;;;;;;209.63;7.43;;;;;;;20.61;60.04;98149.72;7291096;19;129950;-41
2024/01/02 07:37:12;;;;;;;238.57;8.83;;;;;;;20.71;60.29;98171.25;7292063;19;130357;-39
2024/01/02 07:39:38;;;;;;;172.93;6.37;;;;;;;20.74;60.01;98154.44;7293494;19;131476;-38
2024/01/02 07:42:05;;;;;;;317.87;11.73;;;;;;;20.75;60.25;98150.81;7288795;19;130289;-39
2024/01/02 07:44:31;;;;;;;229.48;8.65;;;;;;;20.74;60.45;98149.22;7287402;19;129667;-42
2024/01/02 07:46:57;;;;;;;185.95;6.85;;;;;;;20.62;60.13;98114.00;7291488;19;129254;-38
2024/01/02 07:49:22;;;;;;;235.82;9.13;;;;;;;20.73;59.93;98131.88;7288221;19;130745;-40
2024/01/02 07:51:48;;;;;;;272.33;9.83;;;;;;;20.73;60.39;98137.94;7288604;19;131853;-35
2024/01/02 07:54:13;;;;;;;232.35;8.75;;;;;;;20.59;60.16;98103.88;7286241;19;130226;-43
2024/01/02 07:56:38;;;;;;;236.32;8.55;;;;;;;20.72;60.32;98117.22;7282607;19;129595;-42
2024/01/02 07:59:04;;;;;;;166.90;6.10;;;;;;;20.56;60.19;98091.19;7295627;19;130108;-38
2024/01/02 08:01:29;;;;;;;337.63;12.33;;;;;;;20.73;60.05;98121.44;7295572;19;131976;-36
2024/01/02 08:03:55;;;;;;;202.02;7.50;;;;;;;20.70;60.70;98120.00;7295538;19;131513;-39
2024/01/02 08:06:20;;;;;;;231.57;8.63;;;;;;;20.71;60.25;98107.72;7296345;19;131995;-41
2024/01/02 08:08:45;;;;;;;217.43;8.07;;;;;;;20.75;59.90;98114.25;7291515;19;130729;-38
2024/01/02 08:11:11;;;;;;;373.40;14.75;;;;;;;20.72;60.01;98109.38;7293337;19;131181;-41
2024/01/02 08:13:36;;;;;;;237.40;8.90;;;;;;;20.74;60.31;98110.03;7298025;19;130059;-41
2024/01/02 08:16:05;;;;;;;185.65;6.68;;;;;;;20.74;60.19;98094.38;7296910;19;129636;-42
2024/01/02 08:18:33;;;;;;;265.85;10.18;;;;;;;20.76;60.30;98088.97;7296713;19;129815;-36
2024/01/02 08:20:59;;;;;;;241.50;8.68;;;;;;;20.72;60.15;98080.66;7296656;19;131072;-40
2024/01/02 08:23:25;;;;;;;268.17;10.02;;;;;;;20.72;60.20;98083.28;7293922;19;130912;-39
2024/01/02 08:25:50;;;;;;;253.47;9.47;;;;;;;20.71;60.13;98081.63;7290107;19;131451;-38
2024/01/02 08:28:16;;;;;;;197.20;7.27;;;;;;;20.73;60.57;98080.47;7296259;19;130566;-41
2024/01/02 08:30:41;;;;;;;188.95;6.60;;;;;;;20.71;60.39;98069.38;7289201;19;131357;-42
2024/01/02 08:33:06;;;;;;;198.32;7.22;;;;;;;20.59;59.67;98041.22;7296579;19;129262;-37
2024/01/02 08:35:33;;;;;;;316.02;12.35;;;;;;;20.72;60.75;98068.38;7288643;19;129590;-41
2024/01/02 08:37:59;;;;;;;;;;;;;;;20.67;60.79;98054.25;7293471;19;130141;-42
2024/01/02 08:40:24;;;;;;;303.13;11.38;;;;;;;20.69;60.65;98049.66;7292474;19;130287;-40
2024/01/02 08:42:49;;;;;;;236.10;8.65;;;;;;;20.69;60.32;98047.06;7292038;19;129585;-39
2024/01/02 08:45:15;;;;;;;231.02;8.50;;;;;;;20.55;59.93;98013.81;7290760;19;131035;-40
2024/01/02 08:47:40;;;;;;;317.13;11.57;;;;;;;20.66;60.03;98037.75;7288036;19;130921;-45
2024/01/02 08:50:07;;;;;;;200.23;7.25;;;;;;;20.68;60.20;98037.56;7291082;19;130696;-43
2024/01/02 08:52:35;;;;;;;237.02;8.98;;;;;;;20.71;60.45;98039.84;7292588;19;129863;-39
2024/01/02 08:55:01;;;;;;;288.63;10.88;;;;;;;20.72;59.87;98041.47;7288839;19;129780;-43
2024/01/02 08:57:26;;;;;;;279.53;10.43;;;;;;;20.71;60.47;98039.84;7294379;19;130141;-40
2024/01/02 08:59:51;;;;;;;252.77;9.25;;;;;;;20.72;60.30;98036.25;7293790;19;129241;-39
2024/01/02 09:02:17;;;;;;;201.55;7.13;;;;;;;20.71;60.63;98045.88;7293845;19;129509;-37
2024/01/02 09:04:45;;;;;;;208.50;7.72;;;;;;;20.72;60.40;98046.72;7294637;19;130000;-39
2024/01/02 09:07:10;;;;;;;238.77;8.73;;;;;;;20.72;60.64;98041.47;7294351;19;131038;-37
2024/01/02 09:09:35;;;;;;;281.10;10.77;;;;;;;20.71;59.96;98035.44;7290626;19;130261;-40
2024/01/02 09:12:02;;;;;;;244.27;9.07;;;;;;;20.76;60.03;98026.28;7288360;19;131134;-38
2024/01/02 09:14:28;;;;;;;242.05;9.00;;;;;;;20.71;59.85;98014.53;7291499;19;129613;-38
2024/01/02 09:16:54;;;;;;;293.57;10.73;;;;;;;20.69;60.12;97995.63;7293791;19;129612;-37
2024/01/02 09:19:19;;;;;;;219.90;7.88;;;;;;;20.72;59.93;97997.88;7296318;19;129622;-41
2024/01/02 09:21:44;;;;;;;221.73;7.97;;;;;;;20.60;60.46;97981.00;7292525;19;129022;-40
2024/01/02 09:24:13;;;;;;;231.60;8.67;;;;;;;20.72;60.45;97997.09;7291946;19;132377;-37
2024/01/02 09:26:40;;;;;;;332.75;12.32;;;;;;;20.70;60.59;97996.44;7289633;19;130133;-42
2024/01/02 09:29:06;;;;;;;201.07;7.28;;;;;;;20.74;60.14;97995.13;7292392;19;132492;-39
2024/01/02 09:31:31;;;;;;;214.98;8.45;;;;;;;20.73;59.88;97990.88;7287025;19;130897;-40
2024/01/02 09:33:57;;;;;;;190.23;7.15;;;;;;;20.69;60.52;97989.59;7293820;19;129984;-37
2024/01/02 09:36:22;;;;;;;291.40;10.57;;;;;;;20.72;60.17;97989.25;7291884;19;130735;-43
2024/01/02 09:38:47;;;;;;;244.65;9.07;;;;;;;20.71;59.87;97974.56;7293453;19;130318;-39
2024/01/02 09:41:27;;;;;;;260.73;10.07;;;;;;;20.70;60.78;97959.88;7293425;19;129318;-38
2024/01/02 09:44:57;;;;;;;240.90;8.80;;;;;;;20.70;60.34;97954.66;7290032;19;130906;-40
2024/01/02 09:47:44;;;;;;;146.15;5.22;;;;;;;20.71;60.10;97957.09;7288812;19;131717;-41
2024/01/02 09:50:14;;;;;;;240.35;8.77;;;;;;;20.68;60.52;97943.56;7287001;19;131921;-41
2024/01/02 09:53:07;;;;;;;260.83;9.80;;;;;;;20.72;60.55;97947.47;7288609;19;130830;-40
2024/01/02 09:55:37;;;;;;;190.35;7.32;;;;;;;20.57;60.38;97912.66;7284779;19;131578;-39
2024/01/02 09:58:17;;;;;;;216.77;7.97;;;;;;;20.71;60.33;97935.38;7287706;19;130729;-37
2024/01/02 10:01:08;;;;;;;170.93;6.38;;;;;;;20.69;60.95;97916.50;7288882;19;130734;-37
2024/01/02 10:03:56;;;;;;;206.73;7.72;;;;;;;20.71;60.11;97930.16;7294048;19;129058;-40
2024/01/02 10:07:04;;;;;;;211.93;7.70;;;;;;;20.68;60.54;97928.72;7289931;19;129544;-39
2024/01/02 10:09:48;;;;;;;231.13;8.60;;;;;;;20.71;60.09;97914.50;7291509;19;133344;-39
2024/01/02 10:12:43;;;;;;;210.68;7.63;;;;;;;20.58;61.34;97893.38;7290851;19;133014;-37
2024/01/02 10:15:14;;;;;;;312.85;11.50;;;;;;;20.67;61.24;97902.78;7283761;19;130394;-40
2024/01/02 10:17:45;;;;;;;307.65;11.85;;;;;;;20.51;60.69;97866.38;7277453;19;131922;-36
2024/01/02 10:20:41;;;;;;;307.85;11.68;;;;;;;20.57;60.66;97860.44;7279917;19;129569;-41
2024/01/02 10:23:46;;;;;;;285.20;10.43;;;;;;;20.72;60.67;97869.13;7281111;19;132622;-40
2024/01/02 10:26:12;;;;;;;291.80;11.32;;;;;;;20.72;59.66;97866.53;7276203;19;130759;-39
2024/01/02 10:28:42;;;;;;;335.53;13.17;;;;;;;20.77;60.10;97862.38;7281400;19;129627;-43
2024/01/02 10:31:25;;;;;;;362.23;13.75;;;;;;;20.80;60.36;97858.59;7277054;19;130171;-43
2024/01/02 10:34:08;;;;;;;376.50;14.05;;;;;;;20.82;60.11;97853.22;7281026;19;132517;-42
2024/01/02 10:36:40;;;;;;;354.90;13.35;;;;;;;20.81;59.83;97852.38;7276685;19;130238;-41
2024/01/02 10:39:14;;;;;;;342.77;13.30;;;;;;;20.79;59.83;97851.78;7276932;19;129524;-39
2024/01/02 10:42:12;;;;;;;247.05;9.15;;;;;;;20.78;60.09;97837.06;7279987;19;131275;-40
2024/01/02 10:44:59;;;;;;;435.42;17.35;;;;;;;20.75;60.30;97832.22;7277208;19;132743;-40
2024/01/02 10:48:04;;;;;;;240.98;8.75;;;;;;;20.75;59.47;97829.59;7268974;19;129962;-40
2024/01/02 10:50:45;;;;;;;364.13;14.10;;;;;;;20.73;59.79;97819.34;7269632;19;130146;-40
2024/01/02 10:53:13;;;;;;;403.00;15.55;;;;;;;20.73;58.75;97819.34;7269787;19;131182;-42
2024/01/02 10:55:49;;;;;;;325.58;12.23;;;;;;;20.75;59.24;97813.94;7278416;19;130670;-40
2024/01/02 10:58:18;;;;;;;291.63;10.98;;;;;;;20.63;59.87;97781.41;7281864;19;129709;-42
2024/01/02 11:01:09;;;;;;;332.15;12.85;;;;;;;20.77;59.04;97798.09;7281004;19;129469;-40
2024/01/02 11:03:43;;;;;;;319.35;12.27;;;;;;;20.73;59.07;97784.56;7279652;19;132514;-41
2024/01/02 11:06:21;;;;;;;313.80;12.13;;;;;;;20.72;59.34;97780.34;7280178;19;130326;-40
2024/01/02 11:08:55;;;;;;;324.45;11.98;;;;;;;20.60;59.05;97740.81;7282535;19;131238;-41